Kansas City, MO

7:15 AM CDT on September 30, 2014 (GMT -0500)
Ham radio station N0GMG Westwood Ks | Change Station
CLOSE
Current Station
Personal Weather Station
Location: Westwood, KS
Elevation: 937 ft
Nearby Weather Stations

Elev 937 ft 39.03 °N, 94.61 °W | Updated 7 seconds ago

Partly Cloudy
Partly Cloudy
60.7 °F
Feels Like 60.7 °F
N
0.4
Wind Variable Wind from SW
Gusts 1.1 mph

Today
High -- | Low -- °F
--% Chance of Precip.
Yesterday
High -- | Low -- °F
Precip. -- in
7:13 AM 7:02 PM
Waxing Crescent, 36% visible
Pressure 29.90 in
Visibility 9.0 miles
Clouds Clear
Dew Point 57 °F
Humidity 89%
Rainfall 0.00 in
Snow Depth Not available.
UV 0.0 out of 12
Pollen 3.90 out of 12
Ozone Good
PM2.5 Moderate
Flu Activity Not available.
METAR KMKC 301154Z 00000KT 9SM CLR 18/15 A2992 RMK AO2 SLP125 T01830150 10200 20172 55005

More Conditions Fewer Conditions

Pressure 29.90 in
Visibility 9.0 miles
Clouds Clear
Dew Point 57 °F
Humidity 89%
Rainfall 0.00 in
Snow Depth Not available.
UV 0.0 out of 12
Pollen 3.90 out of 12
Ozone Good
PM2.5 Moderate
Flu Activity Not available.
METAR KMKC 301154Z 00000KT 9SM CLR 18/15 A2992 RMK AO2 SLP125 T01830150 10200 20172 55005

More Conditions Fewer Conditions

10-Day Weather Forecast

Almanac

Astronomy

Sep. 30, 2014 Rise Set
Actual Time 7:13 AM CDT 7:02 PM CDT
Civil Twilight 6:46 AM CDT 7:29 PM CDT
Nautical Twilight 6:15 AM CDT 8:00 PM CDT
Astronomical Twilight 5:44 AM CDT 8:31 PM CDT
Moon 1:20 PM CDT 11:35 PM CDT
Length of Visible Light 12h 42m
Length of Day
11h 49m
Tomorrow will be 2m 32s shorter.
Waxing Crescent, 36% of the Moon is Illuminated
Today
Waxing Crescent
Oct 1
First Quarter
Oct 8
Full
Oct 15
Last Quarter
Oct 23
New

Today's Extremes

State Highs State Lows

Community

WunderPhotos

Upload Photos

1,757,621 photos uploaded!

Nearby

Air Quality

  Air Quality AQ Index Pollutant
Yesterday Moderate
PM2.5
Yesterday Moderate
OZONE
Current Moderate
PM2.5
Current Good
OZONE
Tuesday Good
OZONE

Snow Depth

Station Depth Elevation
No new snow has been reported.

Earthquake Activity

City Distance Mag. Time & Date
No recent earthquake activity has been reported nearby.
Minimum magnitude displayed is 2.5.

Coastal Water Temperatures

Place Temperature
No Stations Reporting

Nearby Weather Stations